Terminal Aerodrome Forecast
Issued by NWS

Home | Current Version | Previous Version | Text Only | Print | Product List | Glossary On
Versions: 1 2 3 4 5 6 7 8 9 10 11 12 13
604
FTUS45 KTFX 250313 AAA
TAFHLN
TAF AMD
KHLN 250313Z 2503/2524 23015KT P6SM BKN070
     FM250600 27017G25KT P6SM -SHRA SCT010 OVC030
     FM251200 VRB06KT P6SM SCT030 BKN070=

USA.gov is the U.S. government's official web portal to all federal, state and local government web resources and services.